(°C)
-1°
(°C)
-4°
-5°
-5°
-6°
-7°
-8°
-8°
Z
Z
Z
ZSZ
ZSZ
SZ
ZSZ
(km/h)
15-24
16-26
18-29
24-36
28-41
27-42
24-40
(mm)
0
0
0
0
0
0
0
(%)
10
10
10
21
16
8
7

Podizanje Sunca

/ -44.1°
sun-icon
UV 1
07:41
17:34
Opadajući mesec (233°)
19:27
13:00

METAR za 55.31°S 61.5°I (USCC)

Vreme Uslovi Temperatura/
Tačka rose
Vetar Vidljivost Prognoza Oblaci Pritisak Promena Neobrađeno
VFR 1°C / 0°C 270º 8kt >10km - Scattered Clouds 2600ft 1009 No Significant change. Runway 27: Wet or puddles, 51-100% contamination with <1mm, friction coefficient 0.55. USCC 251800Z 27004MPS 9999 SCT026CB 01/M00 Q1009 R27/290055 NOSIG RMK QFE737
VFR 1°C / 1°C 270º 6kt >10km - Scattered Clouds 2600ft 1009 No Significant change. Runway 27: Wet or puddles, 51-100% contamination with <1mm, friction coefficient 0.55. USCC 251730Z 27003MPS 9999 SCT026CB 01/01 Q1009 R27/290055 NOSIG RMK QFE737
VFR 2°C / 1°C 260º 6kt >10km - Few Clouds 3000ft 1009 No Significant change. Runway 27: Wet or puddles, 51-100% contamination with <1mm, friction coefficient 0.55. USCC 251700Z 26003MPS 9999 FEW030CB 02/01 Q1009 R27/290055 NOSIG RMK QFE737
VFR 2°C / 1°C 260º 6kt >10km - Scattered Clouds 3000ft 1009 No Significant change. Runway 27: Wet or puddles, 51-100% contamination with <1mm, friction coefficient 0.55. USCC 251630Z 26003MPS 9999 SCT030CB 02/01 Q1009 R27/290055 NOSIG RMK QFE737
VFR 2°C / 1°C 270º 6kt >10km - Scattered Clouds 3000ft 1010 No Significant change. Runway 27: Wet or puddles, 51-100% contamination with <1mm, friction coefficient 0.55. USCC 251600Z 27003MPS 9999 SCT030CB 02/01 Q1010 R27/290055 NOSIG RMK QFE737
MVFR 3°C / 1°C 270º 4kt >10km - Broken Clouds 2000ft 1010 No Significant change. Runway 27: Wet or puddles, 51-100% contamination with <1mm, friction coefficient 0.55. USCC 251530Z 27002MPS 9999 BKN020CB 03/01 Q1010 R27/290055 NOSIG RMK QFE737
MVFR 4°C / 1°C 290º 2kt >10km - Broken Clouds 2000ft 1010 No Significant change. Runway 27: Wet or puddles, 51-100% contamination with <1mm, friction coefficient 0.55. USCC 251500Z 29001MPS 9999 BKN020CB 04/01 Q1010 R27/290055 NOSIG RMK QFE738
MVFR 4°C / 1°C 300º 2kt >10km Light Showers Rain 3.00mm precipitation Vertical Visibility of 0ft. 1010 No Significant change. Runway 27: Wet or puddles, 51-100% contamination with <1mm, friction coefficient 0.55. USCC 251430Z 30001MPS 9999 -SHRA BKN020CB 04/01 Q1010 R27/290055 NOSIG RMK QFE738
MVFR 4°C / 0°C 290º 4kt >10km Light Showers Rain 3.00mm precipitation Vertical Visibility of 0ft. 1010 No Significant change. Runway 27: Wet or puddles, 51-100% contamination with <1mm, friction coefficient 0.55. USCC 251400Z 29002MPS 9999 -SHRA BKN030CB 04/00 Q1010 R27/290055 NOSIG RMK QFE738
MVFR 4°C / 0°C 270º 4kt >10km - Broken Clouds 3000ft 1010 No Significant change. Runway 27: Wet or puddles, 51-100% contamination with <1mm, friction coefficient 0.55. USCC 251330Z 27002MPS 9999 BKN030CB 04/00 Q1010 R27/290055 NOSIG RMK QFE738
MVFR 4°C / 1°C 290º 6kt >10km Light Showers Rain 3.00mm precipitation Vertical Visibility of 0ft. 1011 No Significant change. Runway 27: Wet or puddles, 26-50% contamination with <1mm, friction coefficient 0.55. USCC 251300Z 29003MPS 9999 -SHRA BKN030CB 04/01 Q1011 R27/250055 NOSIG RMK QFE738
VFR 5°C / 1°C 310º 4kt >10km - Broken Clouds 4000ft 1011 No Significant change USCC 251230Z 31002MPS 9999 BKN040CB 05/01 Q1011 R27/000060 NOSIG RMK QFE738
VFR 5°C / 2°C 340º 4kt >10km - Broken Clouds 4000ft 1011 No Significant change USCC 251200Z 34002MPS 9999 BKN040CB 05/02 Q1011 R27/000060 NOSIG RMK QFE738
VFR 6°C / 1°C 330º 4kt >10km - Broken Clouds 4000ft 1011 No Significant change USCC 251130Z 33002MPS 9999 BKN040CB 06/01 Q1011 R27/000060 NOSIG RMK QFE738
VFR 6°C / 1°C 320º 4kt >10km - Broken Clouds 4000ft 1011 No Significant change USCC 251100Z 32002MPS 9999 BKN040 06/01 Q1011 R27/000060 NOSIG RMK QFE738
VFR 6°C / 1°C 310º 6kt >10km - Broken Clouds 4000ft 1011 No Significant change USCC 251030Z 31003MPS 9999 BKN040 06/01 Q1011 R27/000060 NOSIG RMK QFE738
VFR 7°C / 1°C 280º 6kt >10km - Scattered Clouds 4000ft 1011 No Significant change USCC 251000Z 28003MPS 9999 SCT040 07/01 Q1011 R27/000060 NOSIG RMK QFE739
VFR 7°C / 0°C 260º 8kt >10km - Scattered Clouds 4000ft 1012 No Significant change USCC 250930Z 26004MPS 9999 SCT040 07/00 Q1012 R27/000060 NOSIG RMK QFE739
VFR 7°C / 0°C 280º 6kt >10km - Few Clouds 4000ft 1012 No Significant change USCC 250900Z 28003MPS 9999 FEW040 07/00 Q1012 R27/000060 NOSIG RMK QFE739
VFR 7°C / 1°C 280º 8kt >10km - Few Clouds 4000ft 1012 No Significant change USCC 250830Z 28004MPS 9999 FEW040 07/01 Q1012 R27/000060 NOSIG RMK QFE739
VFR 7°C / 1°C 270º 8kt >10km - Few Clouds 4000ft 1012 No Significant change USCC 250800Z 27004MPS 9999 FEW040 07/01 Q1012 R27/000060 NOSIG RMK QFE739
VFR 6°C / 2°C 290º 6kt >10km - Few Clouds 4000ft 1012 No Significant change USCC 250730Z 29003MPS 9999 FEW040 06/02 Q1012 R27/000060 NOSIG RMK QFE739
VFR 6°C / 2°C 270º 8kt >10km - Few Clouds 4000ft 1012 No Significant change USCC 250700Z 27004MPS 9999 FEW040 06/02 Q1012 R27/000060 NOSIG RMK QFE739
VFR 6°C / 2°C 250º 8kt >10km - Few Clouds 4000ft 1012 No Significant change USCC 250630Z 25004MPS 9999 FEW040 06/02 Q1012 R27/000060 NOSIG RMK QFE739

VFR

1°C / 0°C

[Više]
Vetar 270º 8kt
Vidljivost >10km
Prognoza -
Oblaci Scattered Clouds 2600ft
Pritisak 1009
Promena No Significant change. Runway 27: Wet or puddles, 51-100% contamination with <1mm, friction coefficient 0.55.
Neobrađeno USCC 251800Z 27004MPS 9999 SCT026CB 01/M00 Q1009 R27/290055 NOSIG RMK QFE737

VFR

1°C / 1°C

[Više]
Vetar 270º 6kt
Vidljivost >10km
Prognoza -
Oblaci Scattered Clouds 2600ft
Pritisak 1009
Promena No Significant change. Runway 27: Wet or puddles, 51-100% contamination with <1mm, friction coefficient 0.55.
Neobrađeno USCC 251730Z 27003MPS 9999 SCT026CB 01/01 Q1009 R27/290055 NOSIG RMK QFE737

VFR

2°C / 1°C

[Više]
Vetar 260º 6kt
Vidljivost >10km
Prognoza -
Oblaci Few Clouds 3000ft
Pritisak 1009
Promena No Significant change. Runway 27: Wet or puddles, 51-100% contamination with <1mm, friction coefficient 0.55.
Neobrađeno USCC 251700Z 26003MPS 9999 FEW030CB 02/01 Q1009 R27/290055 NOSIG RMK QFE737

VFR

2°C / 1°C

[Više]
Vetar 260º 6kt
Vidljivost >10km
Prognoza -
Oblaci Scattered Clouds 3000ft
Pritisak 1009
Promena No Significant change. Runway 27: Wet or puddles, 51-100% contamination with <1mm, friction coefficient 0.55.
Neobrađeno USCC 251630Z 26003MPS 9999 SCT030CB 02/01 Q1009 R27/290055 NOSIG RMK QFE737

VFR

2°C / 1°C

[Više]
Vetar 270º 6kt
Vidljivost >10km
Prognoza -
Oblaci Scattered Clouds 3000ft
Pritisak 1010
Promena No Significant change. Runway 27: Wet or puddles, 51-100% contamination with <1mm, friction coefficient 0.55.
Neobrađeno USCC 251600Z 27003MPS 9999 SCT030CB 02/01 Q1010 R27/290055 NOSIG RMK QFE737

MVFR

3°C / 1°C

[Više]
Vetar 270º 4kt
Vidljivost >10km
Prognoza -
Oblaci Broken Clouds 2000ft
Pritisak 1010
Promena No Significant change. Runway 27: Wet or puddles, 51-100% contamination with <1mm, friction coefficient 0.55.
Neobrađeno USCC 251530Z 27002MPS 9999 BKN020CB 03/01 Q1010 R27/290055 NOSIG RMK QFE737

MVFR

4°C / 1°C

[Više]
Vetar 290º 2kt
Vidljivost >10km
Prognoza -
Oblaci Broken Clouds 2000ft
Pritisak 1010
Promena No Significant change. Runway 27: Wet or puddles, 51-100% contamination with <1mm, friction coefficient 0.55.
Neobrađeno USCC 251500Z 29001MPS 9999 BKN020CB 04/01 Q1010 R27/290055 NOSIG RMK QFE738

MVFR

4°C / 1°C

[Više]
Vetar 300º 2kt
Vidljivost >10km
Prognoza Light Showers Rain 3.00mm precipitation
Oblaci Vertical Visibility of 0ft.
Pritisak 1010
Promena No Significant change. Runway 27: Wet or puddles, 51-100% contamination with <1mm, friction coefficient 0.55.
Neobrađeno USCC 251430Z 30001MPS 9999 -SHRA BKN020CB 04/01 Q1010 R27/290055 NOSIG RMK QFE738

MVFR

4°C / 0°C

[Više]
Vetar 290º 4kt
Vidljivost >10km
Prognoza Light Showers Rain 3.00mm precipitation
Oblaci Vertical Visibility of 0ft.
Pritisak 1010
Promena No Significant change. Runway 27: Wet or puddles, 51-100% contamination with <1mm, friction coefficient 0.55.
Neobrađeno USCC 251400Z 29002MPS 9999 -SHRA BKN030CB 04/00 Q1010 R27/290055 NOSIG RMK QFE738

MVFR

4°C / 0°C

[Više]
Vetar 270º 4kt
Vidljivost >10km
Prognoza -
Oblaci Broken Clouds 3000ft
Pritisak 1010
Promena No Significant change. Runway 27: Wet or puddles, 51-100% contamination with <1mm, friction coefficient 0.55.
Neobrađeno USCC 251330Z 27002MPS 9999 BKN030CB 04/00 Q1010 R27/290055 NOSIG RMK QFE738

MVFR

4°C / 1°C

[Više]
Vetar 290º 6kt
Vidljivost >10km
Prognoza Light Showers Rain 3.00mm precipitation
Oblaci Vertical Visibility of 0ft.
Pritisak 1011
Promena No Significant change. Runway 27: Wet or puddles, 26-50% contamination with <1mm, friction coefficient 0.55.
Neobrađeno USCC 251300Z 29003MPS 9999 -SHRA BKN030CB 04/01 Q1011 R27/250055 NOSIG RMK QFE738

VFR

5°C / 1°C

[Više]
Vetar 310º 4kt
Vidljivost >10km
Prognoza -
Oblaci Broken Clouds 4000ft
Pritisak 1011
Promena No Significant change
Neobrađeno USCC 251230Z 31002MPS 9999 BKN040CB 05/01 Q1011 R27/000060 NOSIG RMK QFE738

VFR

5°C / 2°C

[Više]
Vetar 340º 4kt
Vidljivost >10km
Prognoza -
Oblaci Broken Clouds 4000ft
Pritisak 1011
Promena No Significant change
Neobrađeno USCC 251200Z 34002MPS 9999 BKN040CB 05/02 Q1011 R27/000060 NOSIG RMK QFE738

VFR

6°C / 1°C

[Više]
Vetar 330º 4kt
Vidljivost >10km
Prognoza -
Oblaci Broken Clouds 4000ft
Pritisak 1011
Promena No Significant change
Neobrađeno USCC 251130Z 33002MPS 9999 BKN040CB 06/01 Q1011 R27/000060 NOSIG RMK QFE738

VFR

6°C / 1°C

[Više]
Vetar 320º 4kt
Vidljivost >10km
Prognoza -
Oblaci Broken Clouds 4000ft
Pritisak 1011
Promena No Significant change
Neobrađeno USCC 251100Z 32002MPS 9999 BKN040 06/01 Q1011 R27/000060 NOSIG RMK QFE738

VFR

6°C / 1°C

[Više]
Vetar 310º 6kt
Vidljivost >10km
Prognoza -
Oblaci Broken Clouds 4000ft
Pritisak 1011
Promena No Significant change
Neobrađeno USCC 251030Z 31003MPS 9999 BKN040 06/01 Q1011 R27/000060 NOSIG RMK QFE738

VFR

7°C / 1°C

[Više]
Vetar 280º 6kt
Vidljivost >10km
Prognoza -
Oblaci Scattered Clouds 4000ft
Pritisak 1011
Promena No Significant change
Neobrađeno USCC 251000Z 28003MPS 9999 SCT040 07/01 Q1011 R27/000060 NOSIG RMK QFE739

VFR

7°C / 0°C

[Više]
Vetar 260º 8kt
Vidljivost >10km
Prognoza -
Oblaci Scattered Clouds 4000ft
Pritisak 1012
Promena No Significant change
Neobrađeno USCC 250930Z 26004MPS 9999 SCT040 07/00 Q1012 R27/000060 NOSIG RMK QFE739

VFR

7°C / 0°C

[Više]
Vetar 280º 6kt
Vidljivost >10km
Prognoza -
Oblaci Few Clouds 4000ft
Pritisak 1012
Promena No Significant change
Neobrađeno USCC 250900Z 28003MPS 9999 FEW040 07/00 Q1012 R27/000060 NOSIG RMK QFE739

VFR

7°C / 1°C

[Više]
Vetar 280º 8kt
Vidljivost >10km
Prognoza -
Oblaci Few Clouds 4000ft
Pritisak 1012
Promena No Significant change
Neobrađeno USCC 250830Z 28004MPS 9999 FEW040 07/01 Q1012 R27/000060 NOSIG RMK QFE739

VFR

7°C / 1°C

[Više]
Vetar 270º 8kt
Vidljivost >10km
Prognoza -
Oblaci Few Clouds 4000ft
Pritisak 1012
Promena No Significant change
Neobrađeno USCC 250800Z 27004MPS 9999 FEW040 07/01 Q1012 R27/000060 NOSIG RMK QFE739

VFR

6°C / 2°C

[Više]
Vetar 290º 6kt
Vidljivost >10km
Prognoza -
Oblaci Few Clouds 4000ft
Pritisak 1012
Promena No Significant change
Neobrađeno USCC 250730Z 29003MPS 9999 FEW040 06/02 Q1012 R27/000060 NOSIG RMK QFE739

VFR

6°C / 2°C

[Više]
Vetar 270º 8kt
Vidljivost >10km
Prognoza -
Oblaci Few Clouds 4000ft
Pritisak 1012
Promena No Significant change
Neobrađeno USCC 250700Z 27004MPS 9999 FEW040 06/02 Q1012 R27/000060 NOSIG RMK QFE739

VFR

6°C / 2°C

[Više]
Vetar 250º 8kt
Vidljivost >10km
Prognoza -
Oblaci Few Clouds 4000ft
Pritisak 1012
Promena No Significant change
Neobrađeno USCC 250630Z 25004MPS 9999 FEW040 06/02 Q1012 R27/000060 NOSIG RMK QFE739

TAF za 55.31°S 61.5°I (USCC)

From till


From till Wind 280º 6kt. Gust 25kt. Visibility 10km or more. Scattered Clouds 2000ft.
Temporarly from till Visibility 6000m. Light Showers Rain Light Showers Snow . Broken Clouds 1600ft.
Temporarly from till Light Showers Rain Light Showers Snow .
From till Wind 320º 12kt. Gust 31kt. Visibility 10km or more. Scattered Clouds 2000ft.

Neobrađeno: TAF USCC 251700Z 2518/2618 28003G13MPS 9999 SCT020CB TEMPO 2518/2522 6000 -SHRASN BKN016CB FM252200 32006G16MPS 9999 SCT020CB TEMPO 2522/2610 -SHRASN

Trenutni satelitski snimci i slike kiše za 55.31°S 61.5°I

Marker lokacije postavljen je na 55.31°S 61.5°I. [Više]

Satelitski snimci u realnom vremenu kombinuju vidljivu svetlost tokom dana sa infracrvenim zračenjem tokom noći. Noću slika nije tamna jer infracrveno zračenje može otkriti temperaturne razlike. Nažalost, niski oblaci i magla teško se mogu razlikovati od temperature zemlje tako da mogu biti skoro nevidljivi tokom noći. Meteosat satelitski snimci za Evropu se ažuriraju u realnom vremenu na svakih 5 minuta. Slnimci GOES-16/GOES-17 (Severna i Južna Amerika) and Himawari (Azia) ažuriraju se na svakih 10 minuta.

Autorsko pravo 2021 EUMETSAT / meteoblue. / Autorsko pravo 2021 meteoblue

Radar i padavine kratka prognoza za 55.31°S 61.5°I

Rominjati
Lak
Umjereno
Teška
Vrlo teško
Zdravo

Marker lokacije postavljen je na 55.31°S 61.5°I. Ova animacija prikazuje radar padavina za poslednji sat, kao i 1h prognozu. Kiša ili slab snijeg mogu biti nevidljivi za radar. Intenzitet padavina je označen bojom, u rasponu od svetloplave do narandžaste.